Multan International Airport
OPMT : now visible

Airfield :











YOU CAN JOIN US ON...

 
LOGIN :

Register | Disclaimer

   EN    FR    IT 

 









Legend :    VFR   Marginal VFR   IFR   Intensive IFR   Very Intensive IFR
Visi :
Ceiling :
>= 8 km
>= 3000ft
5 to 8 km
1000 to 3000 ft
1500m to 5 km
500 to 1000 ft
800 to 1500m
200 to 500 ft
< 800m
< 200 ft
Symbols :   Thunderstorms  Fog  Heavy snow  Heavy precipitations  Wind > 20 kt






- Airport Elevation : 403 ft
- IATA code : MUX


OPMT - Multan International

CURRENT METAR :
  • 011830Z 00000KT 4000 VCTS FEW030CB SCT040 21/18 Q1012 TEMPO TSRA

EXPIRED METARs :
  • 011800Z 00000KT 4000 TSRA FEW030CB SCT040 SCT100 21/18 Q1014 NOSIG
  • 011730Z 23006KT 4000 TS FEW030CB SCT040 21/17 Q1013 TEMPO RA
  • 011700Z 00000KT 4000 TS FEW030CB SCT040 21/17 Q1013 TEMPO RA
  • 011630Z 00000KT 4000 VCTS FEW030CB SCT040 22/17 Q1013 TEMPO 36020KT 2000 RA
  • 011600Z 05004KT 4000 TS FEW030CB SCT040 SCT100 22/17 Q1013 TEMPO 36020KT 2000 RA

TAF TAF OPMT
Valid from the 01 at 18:00 until the 02 at 12:00 UTC


011545Z 0118/0212 36010KT 4000 FU FEW040 SCT120 TN15/0201Z TX28/0210Z
PROB30
TEMPO 0118/0122 36020KT 2000 -TSRA FEW030CB SCT040 BKN100



MET'MAP, your aeronautical weather chart ! - Copyright ORBIFLY December 2007 - Disclaimer

ORBIFLY MET'MAP TEAM :

Programming & Development : Alexandra Zaïnal
Concept & original design : Baudouin d'Aumeries
Assistance for programming : Marc-Olivier Méhu
Technical & hardware support : Manuel Goepfert

Contact : metmap@orbifly.com




SOURCES & CREDITS :

   NOAA       Earth
Advisory